This is the latest recevied weather packets stored in our database for station/object SP5IZJ-2. If no packets are shown the sender has not sent any weather packets the latest 10 day(s).
| Time | Temp. | Humidity | Pressure | Rain* | Wind** | Luminosity | Snow |
|---|---|---|---|---|---|---|---|
| 1787472541 | 17.78° C | 70% | 1010 hPa | 0 mm | - | - | - |
| 1787472121 | 18.33° C | 71% | 1010 hPa | 0 mm | - | - | - |
| 1787471701 | 17.78° C | 71% | 1010 hPa | 0 mm | - | - | - |
| 1787470870 | 16.67° C | 75% | 1010 hPa | 0 mm | - | - | - |
| 1787470446 | 16.67° C | 75% | 1009.9 hPa | 0 mm | - | - | - |
| 1787469614 | 16.11° C | 76% | 1009.8 hPa | 0 mm | - | - | - |
| 1787469186 | 16.11° C | 78% | 1009.8 hPa | 0 mm | - | - | - |
| 1787468762 | 16.11° C | 78% | 1009.7 hPa | 0 mm | - | - | - |
| 1787468347 | 16.11° C | 77% | 1009.6 hPa | 0 mm | - | - | - |
| 1787467923 | 15.56° C | 78% | 1009.6 hPa | 0 mm | - | - | - |
| 1787467503 | 15.56° C | 78% | 1009.6 hPa | 0 mm | - | - | - |
| 1787466663 | 15.56° C | 79% | 1009.6 hPa | 0 mm | - | - | - |
| 1787466243 | 15.56° C | 79% | 1009.6 hPa | 0 mm | - | - | - |
| 1787465824 | 15° C | 79% | 1009.6 hPa | 0 mm | - | - | - |
| 1787464984 | 16.11° C | 75% | 1009.3 hPa | 0 mm | - | - | - |
| 1787464599 | 16.67° C | 76% | 1009.4 hPa | 0 mm | - | - | - |
| 1787464564 | 16.67° C | 76% | 1009.4 hPa | 0 mm | - | - | - |
| 1787464147 | 16.67° C | 77% | 1009.3 hPa | 0 mm | - | - | - |
| 1787462049 | 15° C | 80% | 1009.1 hPa | 0 mm | - | - | - |
| 1787461625 | 15° C | 82% | 1009.2 hPa | 0 mm | - | - | - |
| 1787461205 | 14.44° C | 83% | 1009.1 hPa | 0 mm | - | - | - |
| 1787460786 | 14.44° C | 84% | 1008.9 hPa | 0 mm | - | - | - |
| 1787459946 | 100° C | 100% | 0 hPa | 0 mm | - | - | - |
| 1787459114 | 12.78° C | 91% | 1008.8 hPa | 0 mm | - | - | - |
| 1787458690 | 12.22° C | 91% | 1008.8 hPa | 0 mm | - | - | - |
* Rain latest hour (hover to see other rain measurements)
** Current wind speed in m/s (hover to see current wind gust speed)